Chautauqua County-Jamestown Airport
KJHW : now visible

Airfield :











YOU CAN JOIN US ON...

 
LOGIN :

Register | Disclaimer

   EN    FR    IT 

 









Legend :    VFR   Marginal VFR   IFR   Intensive IFR   Very Intensive IFR
Visi :
Ceiling :
>= 8 km
>= 3000ft
5 to 8 km
1000 to 3000 ft
1500m to 5 km
500 to 1000 ft
800 to 1500m
200 to 500 ft
< 800m
< 200 ft
Symbols :   Thunderstorms  Fog  Heavy snow  Heavy precipitations  Wind > 20 kt






- Airport Elevation : 1723 ft


KJHW - Chautauqua County-Jamestown

CURRENT METAR :
  • 081856Z AUTO 28014KT 10SM FEW017 11/06 A2969 RMK AO2 SLP060 T01060061

EXPIRED METARs :
  • 081756Z AUTO 29011KT 10SM FEW021 12/06 A2968 RMK AO2 SLP058 60000 T01170061 10117 20072 50008
  • 081733Z AUTO 29007KT 10SM SCT019 11/07 A2968 RMK AO2
  • 081709Z AUTO 27010KT 10SM BKN015 OVC021 11/07 A2969 RMK AO2
  • 081656Z AUTO 32008KT 10SM OVC013 09/07 A2969 RMK AO2 SLP063 T00940067
  • 081628Z AUTO 32008KT 10SM BKN010 OVC015 09/07 A2968 RMK AO2 CIG 008V012

TAF KJHW
Valid from the 08 at 18:00 until the 09 at 18:00 UTC


081740Z 0818/0918 29007KT P6SM SCT025
FM090500 15007KT 6SM BR VCSH BKN090
FM090700 15010G18KT 6SM -SHRA OVC050
FM091100 23015G29KT 5SM -SHRA OVC003
FM091200 26016G28KT 6SM BR VCSH OVC007
FM091400 30017G28KT P6SM OVC012



MET'MAP, your aeronautical weather chart ! - Copyright ORBIFLY December 2007 - Disclaimer

ORBIFLY MET'MAP TEAM :

Programming & Development : Alexandra Zaïnal
Concept & original design : Baudouin d'Aumeries
Assistance for programming : Marc-Olivier Méhu
Technical & hardware support : Manuel Goepfert

Contact : metmap@orbifly.com




SOURCES & CREDITS :

   NOAA       Earth
Advisory